< Typhoon 196305 1963 Season Typhoon 196307 >
Typhoon 196306 (VIRGINIA)
General InformationTrack Information on Google Maps || Disaster Info.ResourceGoogle EarthGE AnimationAtom FeedGeoJSON
Detalied Best Track (Time Zone = UTC)
Year Month Day Hour Lat. Long. Pressure (hPa) Wind (kt) Class Image Chart
1963 7 1 12 11.6 143.8 1006 0 2 -- Chart
1963 7 1 18 11.8 142.9 1006 0 2 -- Chart
1963 7 2 00 12.0 142.0 1006 0 2 -- Chart
1963 7 2 06 12.2 141.0 1006 0 2 -- Chart
1963 7 2 12 12.4 140.0 1006 0 2 -- Chart
1963 7 2 18 12.7 138.7 1004 0 2 -- Chart
1963 7 3 00 13.0 137.5 1004 0 2 -- Chart
1963 7 3 06 13.7 135.6 1002 0 2 -- Chart
1963 7 3 12 14.4 134.2 1002 0 2 -- Chart
1963 7 3 18 15.2 133.1 1002 0 2 -- Chart
1963 7 4 00 15.8 132.1 1002 0 2 -- Chart
1963 7 4 06 16.4 131.2 1002 0 2 -- Chart
1963 7 4 12 17.2 130.5 1002 0 2 -- Chart
1963 7 4 18 17.7 130.3 1002 0 2 -- Chart
1963 7 5 00 18.3 130.3 1002 0 2 -- Chart
1963 7 5 06 18.6 130.5 1002 0 2 -- Chart
1963 7 5 12 19.0 130.8 1002 0 2 -- Chart
1963 7 5 18 19.6 131.2 1002 0 2 -- Chart
1963 7 6 00 20.1 131.6 1002 0 2 -- Chart
1963 7 6 06 20.6 132.1 1002 0 9 -- Chart
1963 7 6 12 21.2 132.4 1002 0 9 -- Chart
1963 7 6 18 21.6 132.6 1002 0 9 -- Chart
1963 7 7 00 21.9 132.7 1002 0 9 -- Chart
1963 7 7 06 22.8 132.7 1000 0 9 -- Chart
1963 7 7 12 24.1 132.5 1000 0 9 -- Chart
1963 7 7 18 25.5 132.6 998 0 9 -- Chart
1963 7 8 00 26.7 133.2 995 0 9 -- Chart
1963 7 8 06 27.8 133.8 990 0 9 -- Chart
1963 7 8 12 29.5 134.7 995 0 9 -- Chart
1963 7 8 18 31.3 136.6 998 0 9 -- Chart
1963 7 9 00 33.4 139.0 1000 0 2 -- Chart
Japan Meteorological Agency Best Track Data | Correction Date : 1989-06-01
< Typhoon 196305 1963 Season Typhoon 196307 >

Help